createdAt,value
2019-04-05T00:01:11.430Z,80.78
2019-04-05T00:03:38.905Z,81.08
2019-04-05T00:06:06.018Z,81.47
2019-04-05T00:08:33.223Z,81.67
2019-04-05T00:11:00.405Z,81.83
2019-04-05T00:13:27.649Z,82.05
2019-04-05T00:15:54.939Z,82.27
2019-04-05T00:18:22.216Z,82.50
2019-04-05T00:20:49.281Z,82.76
2019-04-05T00:23:16.520Z,82.90
2019-04-05T00:25:43.728Z,83.03
2019-04-05T00:28:10.956Z,83.13
2019-04-05T00:30:38.145Z,83.19
2019-04-05T00:33:05.226Z,83.33
2019-04-05T00:35:32.609Z,83.28
2019-04-05T00:37:59.717Z,83.08
2019-04-05T00:40:26.897Z,82.86
2019-04-05T00:42:54.090Z,82.01
2019-04-05T00:45:28.149Z,81.57
2019-04-05T00:47:50.407Z,81.36
2019-04-05T00:50:17.587Z,81.28
2019-04-05T00:52:44.757Z,80.79
2019-04-05T00:55:12.156Z,80.60
2019-04-05T00:57:39.301Z,79.37
2019-04-05T01:00:07.312Z,78.62
2019-04-05T01:02:34.517Z,78.01
2019-04-05T01:05:01.631Z,78.60
2019-04-05T01:07:28.822Z,79.49
2019-04-05T01:09:56.231Z,79.19
2019-04-05T01:12:23.502Z,79.21
2019-04-05T01:14:52.000Z,78.87
2019-04-05T01:17:24.716Z,78.40
2019-04-05T01:19:49.755Z,78.75
2019-04-05T01:22:18.347Z,79.27
2019-04-05T01:24:45.529Z,80.04
2019-04-05T01:27:13.203Z,80.74
2019-04-05T01:29:41.845Z,81.10
2019-04-05T01:32:09.069Z,81.37
2019-04-05T01:34:36.256Z,81.68
2019-04-05T01:37:03.564Z,82.09
2019-04-05T01:39:30.817Z,82.40
2019-04-05T01:41:58.355Z,82.69
2019-04-05T01:44:25.878Z,81.25
2019-04-05T01:46:53.065Z,80.83
2019-04-05T01:49:20.273Z,81.11
2019-04-05T01:51:47.542Z,81.44
2019-04-05T01:54:14.681Z,81.84
2019-04-05T01:56:42.219Z,82.17
2019-04-05T01:59:09.493Z,82.45
2019-04-05T02:01:36.952Z,82.73
2019-04-05T02:04:04.116Z,82.95
2019-04-05T02:06:31.416Z,83.00
2019-04-05T02:08:58.686Z,83.09
2019-04-05T02:11:26.226Z,83.07
2019-04-05T02:13:53.751Z,82.93
2019-04-05T02:16:21.752Z,82.76
2019-04-05T02:18:48.986Z,80.52
2019-04-05T02:21:16.179Z,79.76
2019-04-05T02:23:43.366Z,80.00
2019-04-05T02:26:11.138Z,79.55
2019-04-05T02:28:39.133Z,78.62
2019-04-05T02:31:07.141Z,78.29
2019-04-05T02:33:34.523Z,78.19
2019-04-05T02:36:02.401Z,77.84
2019-04-05T02:38:29.661Z,78.20
2019-04-05T02:40:58.787Z,77.59
2019-04-05T02:43:29.961Z,76.03
2019-04-05T02:45:57.532Z,75.61
2019-04-05T02:48:27.808Z,75.64
2019-04-05T02:50:58.736Z,76.47
2019-04-05T02:53:26.603Z,77.78
2019-04-05T02:55:55.100Z,78.91
2019-04-05T02:58:24.025Z,79.89
2019-04-05T03:00:52.817Z,80.56
2019-04-05T03:03:21.443Z,81.20
2019-04-05T03:05:48.710Z,81.78
2019-04-05T03:08:16.782Z,82.20
2019-04-05T03:11:03.329Z,82.46
2019-04-05T03:13:34.441Z,82.53
2019-04-05T03:16:06.295Z,81.69
2019-04-05T03:18:38.059Z,81.41
2019-04-05T03:21:07.344Z,81.53
2019-04-05T03:23:38.026Z,81.71
2019-04-05T03:26:08.114Z,81.90
2019-04-05T03:28:38.521Z,82.13
2019-04-05T03:31:05.973Z,82.25
2019-04-05T03:33:34.604Z,82.36
2019-04-05T03:36:02.324Z,82.34
2019-04-05T03:38:30.597Z,82.32
2019-04-05T03:40:58.209Z,82.26
2019-04-05T03:43:25.557Z,81.83
2019-04-05T03:45:53.672Z,81.43
2019-04-05T03:48:21.144Z,81.12
2019-04-05T03:51:20.813Z,81.01
2019-04-05T03:53:48.579Z,81.03
2019-04-05T03:56:19.628Z,81.26
2019-04-05T03:58:46.988Z,80.89
2019-04-05T04:01:14.282Z,81.07
2019-04-05T04:03:41.740Z,80.94
2019-04-05T04:06:09.451Z,81.10
2019-04-05T04:08:36.839Z,80.97
2019-04-05T04:11:08.108Z,81.23
2019-04-05T04:13:40.520Z,81.70
2019-04-05T04:16:09.959Z,81.86
2019-04-05T04:18:38.878Z,82.00
2019-04-05T04:21:32.847Z,82.12
2019-04-05T04:24:03.327Z,81.53
2019-04-05T04:26:32.130Z,80.91
2019-04-05T04:28:59.412Z,81.06
2019-04-05T04:31:27.010Z,81.21
2019-04-05T04:33:54.897Z,81.42
2019-04-05T04:36:23.404Z,81.66
2019-04-05T04:38:50.839Z,81.81
2019-04-05T04:41:19.750Z,81.92
2019-04-05T04:43:47.400Z,81.70
2019-04-05T04:46:15.741Z,81.32
2019-04-05T04:48:44.050Z,81.23
2019-04-05T04:51:12.006Z,81.16
2019-04-05T04:53:39.665Z,81.21
2019-04-05T04:56:07.294Z,81.00
2019-04-05T04:58:34.910Z,80.92
2019-04-05T05:01:02.344Z,80.58
2019-04-05T05:03:29.736Z,79.16
2019-04-05T05:05:57.032Z,78.67
2019-04-05T05:08:25.146Z,78.79
2019-04-05T05:10:52.955Z,78.99
2019-04-05T05:13:20.725Z,79.10
2019-04-05T05:15:48.399Z,79.36
2019-04-05T05:18:15.911Z,79.77
2019-04-05T05:20:44.036Z,80.16
2019-04-05T05:23:12.832Z,80.29
2019-04-05T05:25:40.584Z,80.33
2019-04-05T05:28:32.704Z,80.22
2019-04-05T05:31:09.760Z,79.78
2019-04-05T05:34:30.240Z,79.55
2019-04-05T05:41:04.316Z,79.20
2019-04-05T05:47:05.993Z,78.98
2019-04-05T05:50:15.798Z,78.47
2019-04-05T05:52:49.480Z,78.12
2019-04-05T06:02:09.422Z,77.18
2019-04-05T06:08:12.047Z,76.79
2019-04-05T06:10:49.676Z,76.29
2019-04-05T06:13:26.200Z,75.90
2019-04-05T06:19:14.258Z,74.97
2019-04-05T06:25:19.096Z,71.38
2019-04-05T06:30:39.639Z,71.33
2019-04-05T06:33:31.696Z,69.33
2019-04-05T06:36:08.909Z,68.29
2019-04-05T06:38:49.729Z,67.62
2019-04-05T06:41:50.482Z,67.56
2019-04-05T06:44:36.714Z,68.00
2019-04-05T06:47:19.672Z,67.44
2019-04-05T06:50:22.716Z,67.87
2019-04-05T06:52:52.599Z,68.48
2019-04-05T06:55:28.820Z,68.99
2019-04-05T06:58:02.383Z,70.01
2019-04-05T07:01:04.054Z,70.00
2019-04-05T07:03:47.307Z,70.50
2019-04-05T07:06:24.398Z,72.03
2019-04-05T07:08:54.192Z,72.66
2019-04-05T07:11:23.728Z,73.29
2019-04-05T07:13:51.972Z,73.81
2019-04-05T07:16:22.091Z,74.08
2019-04-05T07:18:55.870Z,74.30
2019-04-05T07:21:22.995Z,74.50
2019-04-05T07:23:53.154Z,74.29
2019-04-05T07:26:27.959Z,72.84
2019-04-05T07:28:57.297Z,72.10
2019-04-05T07:31:29.270Z,71.59
2019-04-05T07:33:58.990Z,70.98
2019-04-05T07:37:01.486Z,69.70
2019-04-05T07:39:28.857Z,68.80
2019-04-05T07:41:56.116Z,67.75
2019-04-05T07:44:23.333Z,67.42
2019-04-05T07:46:50.537Z,66.33
2019-04-05T07:49:18.013Z,66.06
2019-04-05T07:51:45.308Z,65.72
2019-04-05T07:54:12.495Z,65.53
2019-04-05T07:56:40.015Z,65.04
2019-04-05T07:59:07.793Z,65.44
2019-04-05T08:01:34.978Z,65.55
2019-04-05T08:04:02.243Z,65.12
2019-04-05T08:06:30.603Z,65.00
2019-04-05T08:09:11.852Z,64.63
2019-04-05T08:11:40.976Z,64.52
2019-04-05T08:14:09.683Z,63.93
2019-04-05T08:16:36.886Z,63.60
2019-04-05T08:19:04.422Z,63.29
2019-04-05T08:21:31.583Z,62.48
2019-04-05T08:23:58.794Z,62.92
2019-04-05T08:26:25.957Z,63.20
2019-04-05T08:28:53.192Z,62.92
2019-04-05T08:31:20.710Z,63.36
2019-04-05T08:33:47.903Z,63.11
2019-04-05T08:36:15.085Z,63.05
2019-04-05T08:38:42.661Z,63.96
2019-04-05T08:41:09.971Z,64.39
2019-04-05T08:43:37.161Z,64.12
2019-04-05T08:46:04.553Z,63.66
2019-04-05T08:48:31.974Z,63.24
2019-04-05T08:50:59.061Z,63.04
2019-04-05T08:53:26.510Z,62.57
2019-04-05T08:55:53.648Z,63.26
2019-04-05T08:58:32.773Z,63.67
2019-04-05T09:00:49.987Z,63.63
2019-04-05T09:03:17.157Z,63.36
2019-04-05T09:05:44.242Z,63.20
2019-04-05T09:08:11.443Z,62.91
2019-04-05T09:10:38.897Z,62.00
2019-04-05T09:13:06.946Z,61.21
2019-04-05T09:15:34.510Z,61.33
2019-04-05T09:18:01.606Z,61.60
2019-04-05T09:20:29.251Z,61.72
2019-04-05T09:22:56.449Z,61.98
2019-04-05T09:25:23.601Z,62.57
2019-04-05T09:27:50.867Z,63.58
2019-04-05T09:30:18.182Z,64.60
2019-04-05T09:32:45.762Z,65.15
2019-04-05T09:35:12.957Z,65.16
2019-04-05T09:37:40.230Z,64.82
2019-04-05T09:40:09.498Z,64.25
2019-04-05T09:42:36.965Z,63.16
2019-04-05T09:45:04.844Z,63.30
2019-04-05T09:47:32.233Z,63.81
2019-04-05T09:49:59.423Z,61.91
2019-04-05T09:52:27.234Z,60.59
2019-04-05T09:54:54.659Z,60.77
2019-04-05T09:57:21.861Z,59.79
2019-04-05T09:59:49.049Z,59.96
2019-04-05T10:02:16.320Z,60.44
2019-04-05T10:04:43.495Z,60.48
2019-04-05T10:07:10.725Z,61.23
2019-04-05T10:09:37.956Z,61.85
2019-04-05T10:12:05.127Z,62.12
2019-04-05T10:14:32.322Z,62.28
2019-04-05T10:16:59.475Z,61.22
2019-04-05T10:19:26.626Z,60.66
2019-04-05T10:21:53.822Z,60.87
2019-04-05T10:24:21.037Z,61.31
2019-04-05T10:26:48.200Z,62.06
2019-04-05T10:29:15.447Z,61.43
2019-04-05T10:31:42.621Z,60.44
2019-04-05T10:34:09.892Z,59.32
2019-04-05T10:36:37.104Z,58.75
2019-04-05T10:39:06.864Z,59.32
2019-04-05T10:41:35.870Z,58.83
2019-04-05T10:44:05.218Z,58.54
2019-04-05T10:46:32.765Z,58.18
2019-04-05T10:49:00.001Z,58.80
2019-04-05T10:51:27.211Z,58.73
2019-04-05T10:53:54.753Z,57.90
2019-04-05T10:56:21.953Z,57.42
2019-04-05T10:58:49.204Z,57.76
2019-04-05T11:01:16.387Z,56.71
2019-04-05T11:03:43.866Z,56.52
2019-04-05T11:06:11.400Z,56.23
2019-04-05T11:08:38.821Z,56.98
2019-04-05T11:11:06.044Z,58.32
2019-04-05T11:13:33.313Z,58.98
2019-04-05T11:16:02.016Z,58.58
2019-04-05T11:18:30.658Z,58.46
2019-04-05T11:20:58.754Z,59.23
2019-04-05T11:23:26.269Z,59.27
2019-04-05T11:25:53.454Z,59.60
2019-04-05T11:28:20.707Z,59.81
2019-04-05T11:30:47.928Z,60.52
2019-04-05T11:33:15.403Z,60.68
2019-04-05T11:35:42.913Z,61.19
2019-04-05T11:38:11.104Z,61.62
2019-04-05T11:40:38.600Z,61.85
2019-04-05T11:43:05.797Z,62.09
2019-04-05T11:45:33.496Z,62.21
2019-04-05T11:48:02.273Z,61.97
2019-04-05T11:50:34.846Z,62.11
2019-04-05T11:52:58.848Z,62.41
2019-04-05T11:55:35.359Z,62.02
2019-04-05T11:58:03.922Z,61.17
2019-04-05T12:00:38.706Z,59.64
2019-04-05T12:03:09.689Z,59.18
2019-04-05T12:05:36.828Z,59.08
2019-04-05T12:08:04.056Z,59.75
2019-04-05T12:10:32.087Z,59.78
2019-04-05T12:12:59.448Z,59.66
2019-04-05T12:15:26.555Z,60.25
2019-04-05T12:17:53.640Z,60.34
2019-04-05T12:20:22.181Z,60.02
2019-04-05T12:22:52.346Z,60.16
2019-04-05T12:25:18.448Z,60.04
2019-04-05T12:27:45.981Z,60.26
2019-04-05T12:30:16.431Z,60.75
2019-04-05T12:32:43.763Z,61.08
2019-04-05T12:35:16.496Z,60.93
2019-04-05T12:37:50.629Z,60.99
2019-04-05T12:40:14.893Z,61.08
2019-04-05T12:42:43.458Z,61.70
2019-04-05T12:45:14.698Z,62.47
2019-04-05T12:47:39.964Z,63.12
2019-04-05T12:50:08.052Z,63.21
2019-04-05T12:52:35.243Z,62.86
2019-04-05T12:55:04.239Z,63.08
2019-04-05T12:57:31.437Z,63.27
2019-04-05T12:59:58.639Z,62.88
2019-04-05T13:02:33.300Z,62.84
2019-04-05T13:04:55.000Z,62.72
2019-04-05T13:07:22.786Z,62.99
2019-04-05T13:09:53.812Z,63.91
2019-04-05T13:12:19.705Z,64.32
2019-04-05T13:14:47.155Z,64.33
2019-04-05T13:17:14.367Z,64.63
2019-04-05T13:19:41.546Z,64.59
2019-04-05T13:22:08.861Z,64.09
2019-04-05T13:24:39.519Z,63.89
2019-04-05T13:27:05.261Z,63.88
2019-04-05T13:29:32.457Z,63.65
2019-04-05T13:31:59.684Z,64.11
2019-04-05T13:34:26.859Z,64.21
2019-04-05T13:36:54.097Z,64.66
2019-04-05T13:39:21.270Z,65.40
2019-04-05T13:41:48.523Z,65.59
2019-04-05T13:44:15.723Z,65.33
2019-04-05T13:46:43.087Z,65.46
2019-04-05T13:49:10.947Z,65.12
2019-04-05T13:51:41.629Z,64.65
2019-04-05T13:54:10.689Z,65.04
2019-04-05T13:56:36.995Z,64.64
2019-04-05T13:59:04.341Z,64.49
2019-04-05T14:01:31.507Z,64.16
2019-04-05T14:03:58.985Z,64.03
2019-04-05T14:06:26.179Z,64.49
2019-04-05T14:08:53.363Z,64.50
2019-04-05T14:11:20.550Z,64.92
2019-04-05T14:13:47.800Z,65.19
2019-04-05T14:16:14.975Z,66.26
2019-04-05T14:18:45.705Z,66.95
2019-04-05T14:21:11.333Z,66.58
2019-04-05T14:23:38.607Z,67.19
2019-04-05T14:26:06.095Z,67.22
2019-04-05T14:28:34.152Z,66.87
2019-04-05T14:31:02.860Z,67.09
2019-04-05T14:33:30.198Z,67.13
2019-04-05T14:35:57.312Z,67.11
2019-04-05T14:38:24.538Z,67.04
2019-04-05T14:40:51.711Z,67.11
2019-04-05T14:43:21.256Z,67.09
2019-04-05T14:45:47.909Z,67.32
2019-04-05T14:48:15.289Z,67.24
2019-04-05T14:50:42.408Z,67.22
2019-04-05T14:53:09.570Z,67.35
2019-04-05T14:55:36.752Z,67.17
2019-04-05T14:58:06.018Z,67.08
2019-04-05T15:00:33.184Z,66.85
2019-04-05T15:03:00.351Z,67.02
2019-04-05T15:05:27.594Z,67.31
2019-04-05T15:07:55.148Z,67.21
2019-04-05T15:10:24.870Z,67.34
2019-04-05T15:12:51.412Z,67.71
2019-04-05T15:15:18.469Z,67.56
2019-04-05T15:17:48.142Z,67.70
2019-04-05T15:20:14.822Z,67.70
2019-04-05T15:22:42.318Z,67.57
2019-04-05T15:25:10.178Z,67.43
2019-04-05T15:27:37.426Z,67.51
2019-04-05T15:30:05.252Z,67.39
2019-04-05T15:32:33.282Z,67.29
2019-04-05T15:35:00.467Z,66.92
2019-04-05T15:37:31.625Z,67.30
2019-04-05T15:39:58.625Z,67.89
2019-04-05T15:42:26.325Z,68.38
2019-04-05T15:44:53.481Z,68.72
2019-04-05T15:47:23.242Z,68.42
2019-04-05T15:49:51.824Z,68.18
2019-04-05T15:52:19.349Z,68.27
2019-04-05T15:54:46.650Z,68.18
2019-04-05T15:57:13.858Z,68.38
2019-04-05T15:59:41.046Z,67.86
2019-04-05T16:02:11.371Z,67.97
2019-04-05T16:04:39.305Z,68.07
2019-04-05T16:07:06.451Z,68.09
2019-04-05T16:09:33.635Z,68.14
2019-04-05T16:12:01.161Z,68.32
2019-04-05T16:14:28.696Z,68.32
2019-04-05T16:16:56.198Z,68.67
2019-04-05T16:19:23.381Z,69.16
2019-04-05T16:21:50.562Z,69.63
2019-04-05T16:24:18.057Z,69.94
2019-04-05T16:26:45.288Z,69.99
2019-04-05T16:29:12.443Z,69.72
2019-04-05T16:31:39.635Z,69.85
2019-04-05T16:34:06.823Z,70.54
2019-04-05T16:36:33.997Z,70.87
2019-04-05T16:39:01.512Z,71.27
2019-04-05T16:41:28.900Z,71.52
2019-04-05T16:43:56.095Z,71.86
2019-04-05T16:46:23.569Z,72.15
2019-04-05T16:48:50.768Z,72.40
2019-04-05T16:51:17.930Z,72.82
2019-04-05T16:54:00.679Z,73.10
2019-04-05T16:56:27.856Z,73.33
2019-04-05T16:58:55.063Z,73.55
2019-04-05T17:01:27.304Z,73.59
2019-04-05T17:03:51.647Z,73.53
2019-04-05T17:06:19.974Z,73.74
2019-04-05T17:08:47.259Z,73.95
2019-04-05T17:11:14.421Z,74.10
2019-04-05T17:13:41.633Z,74.16
2019-04-05T17:16:08.843Z,74.17
2019-04-05T17:18:36.027Z,74.41
2019-04-05T17:21:03.234Z,74.36
2019-04-05T17:23:32.979Z,74.60
2019-04-05T17:25:59.462Z,74.77
2019-04-05T17:28:26.640Z,75.13
2019-04-05T17:30:53.860Z,75.49
2019-04-05T17:33:20.916Z,75.90
2019-04-05T17:35:47.978Z,76.23
2019-04-05T17:38:15.285Z,76.87
2019-04-05T17:40:42.507Z,77.08
2019-04-05T17:43:09.710Z,77.27
2019-04-05T17:45:37.446Z,77.49
2019-04-05T17:48:04.515Z,77.75
2019-04-05T17:50:33.973Z,77.70
2019-04-05T17:53:12.258Z,78.00
2019-04-05T17:55:31.703Z,78.46
2019-04-05T17:58:01.227Z,78.68
2019-04-05T18:00:28.473Z,78.89
2019-04-05T18:02:55.571Z,79.21
2019-04-05T18:05:22.765Z,79.40
2019-04-05T18:07:50.243Z,79.78
2019-04-05T18:10:17.429Z,80.08
2019-04-05T18:12:44.907Z,80.21
2019-04-05T18:15:12.161Z,80.41
2019-04-05T18:17:39.239Z,80.66
2019-04-05T18:20:09.606Z,81.06
2019-04-05T18:22:36.185Z,81.31
2019-04-05T18:25:05.140Z,81.51
2019-04-05T18:27:32.357Z,81.82
2019-04-05T18:29:59.568Z,82.09
2019-04-05T18:32:27.092Z,82.14
2019-04-05T18:34:54.286Z,82.78
2019-04-05T18:37:21.501Z,83.46
2019-04-05T18:39:48.711Z,84.06
2019-04-05T18:42:15.919Z,84.56
2019-04-05T18:44:43.152Z,84.98
2019-04-05T18:47:10.308Z,85.28
2019-04-05T18:49:37.760Z,85.62
2019-04-05T18:52:04.949Z,85.82
2019-04-05T18:54:32.132Z,86.00
2019-04-05T18:56:59.864Z,86.20
2019-04-05T18:59:27.417Z,86.35
2019-04-05T19:01:54.590Z,86.54
2019-04-05T19:04:22.075Z,86.64
2019-04-05T19:06:49.372Z,86.72
2019-04-05T19:09:16.935Z,86.66
2019-04-05T19:11:44.127Z,86.90
2019-04-05T19:14:11.454Z,86.73
2019-04-05T19:16:38.980Z,86.52
2019-04-05T19:19:06.127Z,86.62
2019-04-05T19:21:33.436Z,86.69
2019-04-05T19:24:01.302Z,86.91
2019-04-05T19:26:28.486Z,87.05
2019-04-05T19:28:55.659Z,87.07
2019-04-05T19:48:46.943Z,86.72
2019-04-05T19:51:14.157Z,87.03
2019-04-05T19:53:41.521Z,87.23
2019-04-05T19:56:08.677Z,87.42
2019-04-05T19:58:35.906Z,87.35
2019-04-05T20:01:03.121Z,87.37
2019-04-05T20:03:30.261Z,87.40
2019-04-05T20:05:57.371Z,87.50
2019-04-05T20:08:24.566Z,87.47
2019-04-05T20:10:51.770Z,87.37
2019-04-05T20:13:18.953Z,87.30
2019-04-05T20:15:46.166Z,87.26
2019-04-05T20:18:13.529Z,87.25
2019-04-05T20:20:40.657Z,87.24
2019-04-05T20:23:07.823Z,87.20
2019-04-05T20:25:35.020Z,86.86
2019-04-05T20:28:02.212Z,86.72
2019-04-05T20:30:29.712Z,86.55
2019-04-05T20:32:56.876Z,86.33
2019-04-05T20:35:24.004Z,86.03
2019-04-05T20:37:51.521Z,85.94
2019-04-05T20:40:19.046Z,85.82
2019-04-05T20:43:10.296Z,85.78
2019-04-05T20:45:37.497Z,85.87
2019-04-05T20:48:04.897Z,85.96
2019-04-05T20:50:32.007Z,86.01
2019-04-05T20:52:59.194Z,85.89
2019-04-05T20:55:26.429Z,85.80
2019-04-05T20:57:53.604Z,85.68
2019-04-05T21:00:21.106Z,85.76
2019-04-05T21:02:48.624Z,85.16
2019-04-05T21:05:24.723Z,85.10
2019-04-05T21:07:44.870Z,84.67
2019-04-05T21:10:12.163Z,84.65
2019-04-05T21:12:39.364Z,84.87
2019-04-05T21:15:06.846Z,85.13
2019-04-05T21:17:34.071Z,84.83
2019-04-05T21:20:01.275Z,84.80
2019-04-05T21:22:28.445Z,84.96
2019-04-05T21:24:55.958Z,85.04
2019-04-05T21:27:23.147Z,85.16
2019-04-05T21:29:50.661Z,85.27
2019-04-05T21:32:17.855Z,85.24
2019-04-05T21:34:45.076Z,85.25
2019-04-05T21:37:12.614Z,85.31
2019-04-05T21:39:39.839Z,85.41
2019-04-05T21:42:07.181Z,85.58
2019-04-05T21:44:34.362Z,85.70
2019-04-05T21:47:01.905Z,85.79
2019-04-05T21:49:29.368Z,85.66
2019-04-05T21:51:56.878Z,85.40
2019-04-05T21:54:24.056Z,85.24
2019-04-05T21:56:51.713Z,85.04
2019-04-05T21:59:18.865Z,84.75
2019-04-05T22:01:46.423Z,84.80
2019-04-05T22:04:13.597Z,85.04
2019-04-05T22:06:40.811Z,85.22
2019-04-05T22:09:08.586Z,85.27
2019-04-05T22:11:35.787Z,85.40
2019-04-05T22:14:02.929Z,85.47
2019-04-05T22:16:30.113Z,85.52
2019-04-05T22:18:57.596Z,85.36
2019-04-05T22:21:24.756Z,85.02
2019-04-05T22:23:51.926Z,84.82
2019-04-05T22:26:19.105Z,84.65
2019-04-05T22:28:46.257Z,84.15
2019-04-05T22:31:13.460Z,83.94
2019-04-05T22:33:40.633Z,83.65
2019-04-05T22:36:07.994Z,83.64
2019-04-05T22:38:35.179Z,83.65
2019-04-05T22:41:02.579Z,83.73
2019-04-05T22:43:29.742Z,83.96
2019-04-05T22:45:56.932Z,84.17
2019-04-05T22:48:24.128Z,84.42
2019-04-05T22:50:51.742Z,84.44
2019-04-05T22:53:18.904Z,84.48
2019-04-05T22:55:46.090Z,84.56
2019-04-05T22:58:13.281Z,84.68
2019-04-05T23:00:40.440Z,84.78
2019-04-05T23:03:07.534Z,84.67
2019-04-05T23:05:34.593Z,84.59
2019-04-05T23:08:02.068Z,84.45
2019-04-05T23:10:29.524Z,84.30
2019-04-05T23:12:56.720Z,83.85
2019-04-05T23:15:23.780Z,83.53
2019-04-05T23:17:51.191Z,83.27
2019-04-05T23:20:18.375Z,83.17
2019-04-05T23:22:45.515Z,83.30
2019-04-05T23:25:21.490Z,83.44
2019-04-05T23:27:41.772Z,83.52
2019-04-05T23:30:09.397Z,83.64
2019-04-05T23:32:36.582Z,83.71
2019-04-05T23:35:04.046Z,83.79
2019-04-05T23:37:31.164Z,83.89
2019-04-05T23:39:58.391Z,84.02
2019-04-05T23:42:25.512Z,84.01
2019-04-05T23:44:52.735Z,84.01
2019-04-05T23:47:20.275Z,84.04
2019-04-05T23:49:47.476Z,84.12
2019-04-05T23:52:14.656Z,84.26
2019-04-05T23:54:41.838Z,84.26
2019-04-05T23:57:09.341Z,84.28
2019-04-05T23:59:36.496Z,84.27
